sensor_id;sensor_type;location;lat;lon;timestamp;P1;durP1;ratioP1;P2;durP2;ratioP2
9413;SDS011;4746;35.664;139.738;2023-04-24T00:01:27;4.47;;;2.73;;
9413;SDS011;4746;35.664;139.738;2023-04-24T00:03:56;5.13;;;2.90;;
9413;SDS011;4746;35.664;139.738;2023-04-24T00:06:25;3.80;;;3.00;;
9413;SDS011;4746;35.664;139.738;2023-04-24T00:08:59;3.53;;;2.60;;
9413;SDS011;4746;35.664;139.738;2023-04-24T00:11:28;5.00;;;3.00;;
9413;SDS011;4746;35.664;139.738;2023-04-24T00:13:56;4.97;;;2.93;;
9413;SDS011;4746;35.664;139.738;2023-04-24T00:16:23;4.57;;;2.97;;
9413;SDS011;4746;35.664;139.738;2023-04-24T00:18:51;4.00;;;2.67;;
9413;SDS011;4746;35.664;139.738;2023-04-24T00:21:19;5.73;;;2.60;;
9413;SDS011;4746;35.664;139.738;2023-04-24T00:23:47;6.67;;;3.27;;
9413;SDS011;4746;35.664;139.738;2023-04-24T00:26:14;4.67;;;3.70;;
9413;SDS011;4746;35.664;139.738;2023-04-24T00:28:42;5.57;;;3.03;;
9413;SDS011;4746;35.664;139.738;2023-04-24T00:31:09;5.90;;;3.03;;
9413;SDS011;4746;35.664;139.738;2023-04-24T00:33:37;6.23;;;3.63;;
9413;SDS011;4746;35.664;139.738;2023-04-24T00:36:05;2.77;;;2.50;;
9413;SDS011;4746;35.664;139.738;2023-04-24T00:38:33;5.00;;;2.87;;
9413;SDS011;4746;35.664;139.738;2023-04-24T00:41:00;5.77;;;3.03;;
9413;SDS011;4746;35.664;139.738;2023-04-24T00:43:28;3.13;;;2.83;;
9413;SDS011;4746;35.664;139.738;2023-04-24T00:45:55;4.40;;;3.03;;
9413;SDS011;4746;35.664;139.738;2023-04-24T00:48:24;4.77;;;3.27;;
9413;SDS011;4746;35.664;139.738;2023-04-24T00:50:53;6.33;;;3.53;;
9413;SDS011;4746;35.664;139.738;2023-04-24T00:53:21;7.27;;;3.30;;
9413;SDS011;4746;35.664;139.738;2023-04-24T00:55:48;5.20;;;3.43;;
9413;SDS011;4746;35.664;139.738;2023-04-24T00:58:16;3.60;;;3.00;;
9413;SDS011;4746;35.664;139.738;2023-04-24T01:00:44;7.57;;;3.33;;
9413;SDS011;4746;35.664;139.738;2023-04-24T01:03:14;4.20;;;2.80;;
9413;SDS011;4746;35.664;139.738;2023-04-24T01:05:43;4.50;;;2.90;;
9413;SDS011;4746;35.664;139.738;2023-04-24T01:08:11;6.10;;;2.93;;
9413;SDS011;4746;35.664;139.738;2023-04-24T01:10:40;3.67;;;2.77;;
9413;SDS011;4746;35.664;139.738;2023-04-24T01:13:11;4.43;;;2.90;;
9413;SDS011;4746;35.664;139.738;2023-04-24T01:15:39;5.37;;;3.23;;
9413;SDS011;4746;35.664;139.738;2023-04-24T01:18:06;3.30;;;2.80;;
9413;SDS011;4746;35.664;139.738;2023-04-24T01:20:34;5.77;;;3.33;;
9413;SDS011;4746;35.664;139.738;2023-04-24T01:23:05;3.90;;;3.13;;
9413;SDS011;4746;35.664;139.738;2023-04-24T01:25:33;5.63;;;3.33;;
9413;SDS011;4746;35.664;139.738;2023-04-24T01:28:02;3.30;;;2.90;;
9413;SDS011;4746;35.664;139.738;2023-04-24T01:30:31;5.00;;;2.90;;
9413;SDS011;4746;35.664;139.738;2023-04-24T01:32:59;5.57;;;2.73;;
9413;SDS011;4746;35.664;139.738;2023-04-24T01:35:26;4.70;;;2.83;;
9413;SDS011;4746;35.664;139.738;2023-04-24T01:37:54;6.20;;;3.07;;
9413;SDS011;4746;35.664;139.738;2023-04-24T01:40:22;4.63;;;2.80;;
9413;SDS011;4746;35.664;139.738;2023-04-24T01:42:50;5.30;;;2.97;;
9413;SDS011;4746;35.664;139.738;2023-04-24T01:45:18;5.57;;;3.17;;
9413;SDS011;4746;35.664;139.738;2023-04-24T01:47:45;4.67;;;2.83;;
9413;SDS011;4746;35.664;139.738;2023-04-24T01:50:15;5.53;;;3.07;;
9413;SDS011;4746;35.664;139.738;2023-04-24T01:52:44;4.70;;;3.20;;
9413;SDS011;4746;35.664;139.738;2023-04-24T01:55:11;3.53;;;3.30;;
9413;SDS011;4746;35.664;139.738;2023-04-24T01:57:39;3.93;;;2.60;;
9413;SDS011;4746;35.664;139.738;2023-04-24T02:00:07;4.07;;;2.70;;
9413;SDS011;4746;35.664;139.738;2023-04-24T02:02:36;4.43;;;3.13;;
9413;SDS011;4746;35.664;139.738;2023-04-24T02:05:07;4.57;;;3.30;;
9413;SDS011;4746;35.664;139.738;2023-04-24T02:07:36;4.47;;;3.10;;
9413;SDS011;4746;35.664;139.738;2023-04-24T02:10:03;4.10;;;2.97;;
9413;SDS011;4746;35.664;139.738;2023-04-24T02:12:32;5.93;;;3.63;;
9413;SDS011;4746;35.664;139.738;2023-04-24T02:15:00;6.50;;;3.13;;
9413;SDS011;4746;35.664;139.738;2023-04-24T02:17:28;5.07;;;3.30;;
9413;SDS011;4746;35.664;139.738;2023-04-24T02:19:56;7.47;;;3.70;;
9413;SDS011;4746;35.664;139.738;2023-04-24T02:22:23;5.20;;;3.50;;
9413;SDS011;4746;35.664;139.738;2023-04-24T02:24:51;3.70;;;3.17;;
9413;SDS011;4746;35.664;139.738;2023-04-24T02:27:18;4.73;;;3.20;;
9413;SDS011;4746;35.664;139.738;2023-04-24T02:29:46;4.40;;;3.60;;
9413;SDS011;4746;35.664;139.738;2023-04-24T02:32:13;4.00;;;3.60;;
9413;SDS011;4746;35.664;139.738;2023-04-24T02:34:41;6.10;;;3.83;;
9413;SDS011;4746;35.664;139.738;2023-04-24T02:37:08;8.23;;;3.97;;
9413;SDS011;4746;35.664;139.738;2023-04-24T02:39:36;6.30;;;4.00;;
9413;SDS011;4746;35.664;139.738;2023-04-24T02:42:03;5.30;;;3.90;;
9413;SDS011;4746;35.664;139.738;2023-04-24T02:44:31;6.63;;;3.87;;
9413;SDS011;4746;35.664;139.738;2023-04-24T02:46:58;3.65;;;3.38;;
9413;SDS011;4746;35.664;139.738;2023-04-24T02:49:26;3.60;;;3.30;;
9413;SDS011;4746;35.664;139.738;2023-04-24T02:51:53;5.75;;;3.72;;
9413;SDS011;4746;35.664;139.738;2023-04-24T02:54:21;4.70;;;3.23;;
9413;SDS011;4746;35.664;139.738;2023-04-24T02:56:48;4.67;;;3.43;;
9413;SDS011;4746;35.664;139.738;2023-04-24T02:59:15;6.33;;;3.60;;
9413;SDS011;4746;35.664;139.738;2023-04-24T03:01:43;5.50;;;3.57;;
9413;SDS011;4746;35.664;139.738;2023-04-24T03:04:10;4.53;;;3.67;;
9413;SDS011;4746;35.664;139.738;2023-04-24T03:06:39;4.57;;;3.63;;
9413;SDS011;4746;35.664;139.738;2023-04-24T03:09:07;7.23;;;3.73;;
9413;SDS011;4746;35.664;139.738;2023-04-24T03:11:34;7.03;;;4.43;;
9413;SDS011;4746;35.664;139.738;2023-04-24T03:14:02;9.20;;;4.20;;
9413;SDS011;4746;35.664;139.738;2023-04-24T03:16:29;4.60;;;3.97;;
9413;SDS011;4746;35.664;139.738;2023-04-24T03:18:58;5.83;;;4.27;;
9413;SDS011;4746;35.664;139.738;2023-04-24T03:21:25;9.00;;;4.13;;
9413;SDS011;4746;35.664;139.738;2023-04-24T03:23:53;6.50;;;4.40;;
9413;SDS011;4746;35.664;139.738;2023-04-24T03:26:21;9.33;;;5.60;;
9413;SDS011;4746;35.664;139.738;2023-04-24T03:28:49;6.83;;;4.53;;
9413;SDS011;4746;35.664;139.738;2023-04-24T03:31:16;8.27;;;4.13;;
9413;SDS011;4746;35.664;139.738;2023-04-24T03:33:46;5.53;;;4.20;;
9413;SDS011;4746;35.664;139.738;2023-04-24T03:36:14;6.63;;;4.50;;
9413;SDS011;4746;35.664;139.738;2023-04-24T03:38:41;6.70;;;4.50;;
9413;SDS011;4746;35.664;139.738;2023-04-24T03:41:09;8.00;;;4.73;;
9413;SDS011;4746;35.664;139.738;2023-04-24T03:43:37;5.10;;;4.60;;
9413;SDS011;4746;35.664;139.738;2023-04-24T03:46:04;7.07;;;4.20;;
9413;SDS011;4746;35.664;139.738;2023-04-24T03:48:34;7.07;;;4.80;;
9413;SDS011;4746;35.664;139.738;2023-04-24T03:51:02;5.63;;;4.53;;
9413;SDS011;4746;35.664;139.738;2023-04-24T03:53:29;5.37;;;4.53;;
9413;SDS011;4746;35.664;139.738;2023-04-24T03:55:57;6.93;;;4.43;;
9413;SDS011;4746;35.664;139.738;2023-04-24T03:58:25;6.90;;;4.70;;
9413;SDS011;4746;35.664;139.738;2023-04-24T04:00:52;7.10;;;5.03;;
9413;SDS011;4746;35.664;139.738;2023-04-24T04:03:22;8.17;;;4.93;;
9413;SDS011;4746;35.664;139.738;2023-04-24T04:05:50;6.87;;;4.93;;
9413;SDS011;4746;35.664;139.738;2023-04-24T04:08:19;8.53;;;5.00;;
9413;SDS011;4746;35.664;139.738;2023-04-24T04:10:47;7.67;;;5.10;;
9413;SDS011;4746;35.664;139.738;2023-04-24T04:13:14;7.43;;;5.43;;
9413;SDS011;4746;35.664;139.738;2023-04-24T04:15:42;8.07;;;5.13;;
9413;SDS011;4746;35.664;139.738;2023-04-24T04:18:09;11.07;;;5.50;;
9413;SDS011;4746;35.664;139.738;2023-04-24T04:20:37;7.23;;;5.23;;
9413;SDS011;4746;35.664;139.738;2023-04-24T04:23:04;7.13;;;4.60;;
9413;SDS011;4746;35.664;139.738;2023-04-24T04:25:32;5.97;;;4.83;;
9413;SDS011;4746;35.664;139.738;2023-04-24T04:27:59;11.37;;;5.57;;
9413;SDS011;4746;35.664;139.738;2023-04-24T04:30:28;7.73;;;5.27;;
9413;SDS011;4746;35.664;139.738;2023-04-24T04:32:58;7.90;;;5.17;;
9413;SDS011;4746;35.664;139.738;2023-04-24T04:35:26;9.77;;;4.77;;
9413;SDS011;4746;35.664;139.738;2023-04-24T04:37:54;5.57;;;4.50;;
9413;SDS011;4746;35.664;139.738;2023-04-24T04:40:24;5.83;;;4.63;;
9413;SDS011;4746;35.664;139.738;2023-04-24T04:42:52;8.30;;;4.80;;
9413;SDS011;4746;35.664;139.738;2023-04-24T04:45:20;6.77;;;4.73;;
9413;SDS011;4746;35.664;139.738;2023-04-24T04:47:49;8.03;;;5.50;;
9413;SDS011;4746;35.664;139.738;2023-04-24T04:50:17;11.57;;;6.57;;
9413;SDS011;4746;35.664;139.738;2023-04-24T04:52:44;11.17;;;5.60;;
9413;SDS011;4746;35.664;139.738;2023-04-24T04:55:12;11.57;;;5.50;;
9413;SDS011;4746;35.664;139.738;2023-04-24T04:57:40;9.80;;;5.20;;
9413;SDS011;4746;35.664;139.738;2023-04-24T05:00:07;8.17;;;4.90;;
9413;SDS011;4746;35.664;139.738;2023-04-24T05:02:36;11.03;;;5.70;;
9413;SDS011;4746;35.664;139.738;2023-04-24T05:05:05;12.37;;;5.50;;
9413;SDS011;4746;35.664;139.738;2023-04-24T05:07:37;7.37;;;5.10;;
9413;SDS011;4746;35.664;139.738;2023-04-24T05:10:04;12.10;;;5.80;;
9413;SDS011;4746;35.664;139.738;2023-04-24T05:12:33;8.80;;;5.77;;
9413;SDS011;4746;35.664;139.738;2023-04-24T05:15:00;9.20;;;5.03;;
9413;SDS011;4746;35.664;139.738;2023-04-24T05:17:28;8.33;;;5.47;;
9413;SDS011;4746;35.664;139.738;2023-04-24T05:19:55;7.07;;;5.10;;
9413;SDS011;4746;35.664;139.738;2023-04-24T05:22:23;7.30;;;5.33;;
9413;SDS011;4746;35.664;139.738;2023-04-24T05:24:51;9.27;;;5.10;;
9413;SDS011;4746;35.664;139.738;2023-04-24T05:27:18;10.47;;;4.90;;
9413;SDS011;4746;35.664;139.738;2023-04-24T05:29:46;8.97;;;5.57;;
9413;SDS011;4746;35.664;139.738;2023-04-24T05:32:14;11.97;;;5.60;;
9413;SDS011;4746;35.664;139.738;2023-04-24T05:34:41;7.63;;;4.57;;
9413;SDS011;4746;35.664;139.738;2023-04-24T05:37:09;8.90;;;5.10;;
9413;SDS011;4746;35.664;139.738;2023-04-24T05:39:36;8.17;;;5.30;;
9413;SDS011;4746;35.664;139.738;2023-04-24T05:42:04;7.68;;;5.25;;
9413;SDS011;4746;35.664;139.738;2023-04-24T05:44:32;10.00;;;5.80;;
9413;SDS011;4746;35.664;139.738;2023-04-24T05:46:59;8.33;;;5.53;;
9413;SDS011;4746;35.664;139.738;2023-04-24T05:49:27;6.87;;;4.70;;
9413;SDS011;4746;35.664;139.738;2023-04-24T05:51:54;9.77;;;5.53;;
9413;SDS011;4746;35.664;139.738;2023-04-24T05:54:22;11.40;;;6.23;;
9413;SDS011;4746;35.664;139.738;2023-04-24T05:56:50;7.93;;;5.30;;
9413;SDS011;4746;35.664;139.738;2023-04-24T05:59:19;8.40;;;5.63;;
9413;SDS011;4746;35.664;139.738;2023-04-24T06:01:47;7.30;;;4.90;;
9413;SDS011;4746;35.664;139.738;2023-04-24T06:04:14;8.23;;;5.20;;
9413;SDS011;4746;35.664;139.738;2023-04-24T06:06:42;9.23;;;4.87;;
9413;SDS011;4746;35.664;139.738;2023-04-24T06:09:10;7.90;;;4.93;;
9413;SDS011;4746;35.664;139.738;2023-04-24T06:11:37;5.00;;;4.00;;
9413;SDS011;4746;35.664;139.738;2023-04-24T06:14:05;6.65;;;4.93;;
9413;SDS011;4746;35.664;139.738;2023-04-24T06:16:32;11.50;;;5.50;;
9413;SDS011;4746;35.664;139.738;2023-04-24T06:19:00;6.95;;;4.20;;
9413;SDS011;4746;35.664;139.738;2023-04-24T06:21:27;9.07;;;4.57;;
9413;SDS011;4746;35.664;139.738;2023-04-24T06:23:55;8.93;;;4.60;;
9413;SDS011;4746;35.664;139.738;2023-04-24T06:26:23;5.20;;;4.70;;
9413;SDS011;4746;35.664;139.738;2023-04-24T06:28:52;7.70;;;4.95;;
9413;SDS011;4746;35.664;139.738;2023-04-24T06:31:20;9.35;;;5.47;;
9413;SDS011;4746;35.664;139.738;2023-04-24T06:33:48;10.00;;;5.13;;
9413;SDS011;4746;35.664;139.738;2023-04-24T06:36:16;9.48;;;4.97;;
9413;SDS011;4746;35.664;139.738;2023-04-24T06:38:44;5.03;;;4.60;;
9413;SDS011;4746;35.664;139.738;2023-04-24T06:41:11;6.53;;;4.77;;
9413;SDS011;4746;35.664;139.738;2023-04-24T06:43:39;7.67;;;4.47;;
9413;SDS011;4746;35.664;139.738;2023-04-24T06:46:06;6.83;;;4.63;;
9413;SDS011;4746;35.664;139.738;2023-04-24T06:48:34;6.37;;;4.80;;
9413;SDS011;4746;35.664;139.738;2023-04-24T06:51:02;5.07;;;4.20;;
9413;SDS011;4746;35.664;139.738;2023-04-24T06:53:29;7.67;;;4.93;;
9413;SDS011;4746;35.664;139.738;2023-04-24T06:55:57;7.57;;;5.07;;
9413;SDS011;4746;35.664;139.738;2023-04-24T06:58:24;7.03;;;4.93;;
9413;SDS011;4746;35.664;139.738;2023-04-24T07:00:52;8.93;;;5.32;;
9413;SDS011;4746;35.664;139.738;2023-04-24T07:03:20;12.00;;;6.13;;
9413;SDS011;4746;35.664;139.738;2023-04-24T07:05:47;8.77;;;5.07;;
9413;SDS011;4746;35.664;139.738;2023-04-24T07:08:15;5.93;;;4.93;;
9413;SDS011;4746;35.664;139.738;2023-04-24T07:10:48;9.67;;;4.93;;
9413;SDS011;4746;35.664;139.738;2023-04-24T07:13:18;6.43;;;4.05;;
9413;SDS011;4746;35.664;139.738;2023-04-24T07:15:46;8.53;;;4.33;;
9413;SDS011;4746;35.664;139.738;2023-04-24T07:18:16;4.33;;;3.93;;
9413;SDS011;4746;35.664;139.738;2023-04-24T07:20:43;6.70;;;5.03;;
9413;SDS011;4746;35.664;139.738;2023-04-24T07:23:11;7.53;;;4.47;;
9413;SDS011;4746;35.664;139.738;2023-04-24T07:25:39;9.33;;;5.40;;
9413;SDS011;4746;35.664;139.738;2023-04-24T07:28:06;6.60;;;5.20;;
9413;SDS011;4746;35.664;139.738;2023-04-24T07:30:34;8.13;;;4.20;;
9413;SDS011;4746;35.664;139.738;2023-04-24T07:33:01;8.03;;;4.63;;
9413;SDS011;4746;35.664;139.738;2023-04-24T07:35:29;6.90;;;4.40;;
9413;SDS011;4746;35.664;139.738;2023-04-24T07:37:56;6.13;;;4.53;;
9413;SDS011;4746;35.664;139.738;2023-04-24T07:40:24;10.33;;;5.03;;
9413;SDS011;4746;35.664;139.738;2023-04-24T07:42:52;8.27;;;5.10;;
9413;SDS011;4746;35.664;139.738;2023-04-24T07:45:20;7.63;;;3.93;;
9413;SDS011;4746;35.664;139.738;2023-04-24T07:47:49;4.87;;;3.90;;
9413;SDS011;4746;35.664;139.738;2023-04-24T07:50:17;7.60;;;4.30;;
9413;SDS011;4746;35.664;139.738;2023-04-24T07:52:45;12.17;;;4.50;;
9413;SDS011;4746;35.664;139.738;2023-04-24T07:55:13;10.13;;;4.93;;
9413;SDS011;4746;35.664;139.738;2023-04-24T07:57:40;5.93;;;4.23;;
9413;SDS011;4746;35.664;139.738;2023-04-24T08:00:08;5.20;;;3.53;;
9413;SDS011;4746;35.664;139.738;2023-04-24T08:02:36;10.43;;;4.53;;
9413;SDS011;4746;35.664;139.738;2023-04-24T08:05:04;6.57;;;4.23;;
9413;SDS011;4746;35.664;139.738;2023-04-24T08:07:32;7.70;;;4.10;;
9413;SDS011;4746;35.664;139.738;2023-04-24T08:10:01;8.13;;;4.43;;
9413;SDS011;4746;35.664;139.738;2023-04-24T08:12:29;9.13;;;4.20;;
9413;SDS011;4746;35.664;139.738;2023-04-24T08:14:57;12.10;;;3.77;;
9413;SDS011;4746;35.664;139.738;2023-04-24T08:17:24;11.37;;;3.90;;
9413;SDS011;4746;35.664;139.738;2023-04-24T08:19:52;5.40;;;3.50;;
9413;SDS011;4746;35.664;139.738;2023-04-24T08:22:27;7.27;;;4.23;;
9413;SDS011;4746;35.664;139.738;2023-04-24T08:24:55;6.33;;;3.53;;
9413;SDS011;4746;35.664;139.738;2023-04-24T08:27:23;7.57;;;3.70;;
9413;SDS011;4746;35.664;139.738;2023-04-24T08:29:55;8.33;;;3.53;;
9413;SDS011;4746;35.664;139.738;2023-04-24T08:32:24;8.10;;;3.83;;
9413;SDS011;4746;35.664;139.738;2023-04-24T08:34:55;8.07;;;3.90;;
9413;SDS011;4746;35.664;139.738;2023-04-24T08:37:23;9.80;;;3.83;;
9413;SDS011;4746;35.664;139.738;2023-04-24T08:39:52;7.57;;;3.97;;
9413;SDS011;4746;35.664;139.738;2023-04-24T08:42:20;4.80;;;3.73;;
9413;SDS011;4746;35.664;139.738;2023-04-24T08:44:48;5.73;;;4.17;;
9413;SDS011;4746;35.664;139.738;2023-04-24T08:47:16;5.27;;;4.23;;
9413;SDS011;4746;35.664;139.738;2023-04-24T08:49:46;7.23;;;3.70;;
9413;SDS011;4746;35.664;139.738;2023-04-24T08:52:16;6.87;;;4.40;;
9413;SDS011;4746;35.664;139.738;2023-04-24T08:54:45;8.77;;;3.83;;
9413;SDS011;4746;35.664;139.738;2023-04-24T08:57:14;8.27;;;4.13;;
9413;SDS011;4746;35.664;139.738;2023-04-24T08:59:44;6.13;;;3.70;;
9413;SDS011;4746;35.664;139.738;2023-04-24T09:02:12;7.50;;;4.30;;
9413;SDS011;4746;35.664;139.738;2023-04-24T09:04:42;6.10;;;3.57;;
9413;SDS011;4746;35.664;139.738;2023-04-24T09:07:12;7.47;;;4.00;;
9413;SDS011;4746;35.664;139.738;2023-04-24T09:09:43;11.40;;;4.17;;
9413;SDS011;4746;35.664;139.738;2023-04-24T09:12:12;8.17;;;4.40;;
9413;SDS011;4746;35.664;139.738;2023-04-24T09:14:40;6.00;;;4.10;;
9413;SDS011;4746;35.664;139.738;2023-04-24T09:17:10;7.23;;;4.10;;
9413;SDS011;4746;35.664;139.738;2023-04-24T09:19:38;8.37;;;4.43;;
9413;SDS011;4746;35.664;139.738;2023-04-24T09:22:07;6.47;;;4.23;;
9413;SDS011;4746;35.664;139.738;2023-04-24T09:24:37;5.33;;;4.10;;
9413;SDS011;4746;35.664;139.738;2023-04-24T09:27:05;8.30;;;4.07;;
9413;SDS011;4746;35.664;139.738;2023-04-24T09:29:37;4.93;;;4.20;;
9413;SDS011;4746;35.664;139.738;2023-04-24T09:32:37;8.40;;;4.30;;
9413;SDS011;4746;35.664;139.738;2023-04-24T09:35:11;9.37;;;4.73;;
9413;SDS011;4746;35.664;139.738;2023-04-24T09:37:42;6.77;;;4.00;;
9413;SDS011;4746;35.664;139.738;2023-04-24T09:40:13;7.43;;;4.47;;
9413;SDS011;4746;35.664;139.738;2023-04-24T09:42:50;6.60;;;4.20;;
9413;SDS011;4746;35.664;139.738;2023-04-24T09:45:27;8.53;;;4.40;;
9413;SDS011;4746;35.664;139.738;2023-04-24T09:48:07;6.20;;;3.83;;
9413;SDS011;4746;35.664;139.738;2023-04-24T09:50:40;8.07;;;4.53;;
9413;SDS011;4746;35.664;139.738;2023-04-24T09:53:13;5.60;;;3.57;;
9413;SDS011;4746;35.664;139.738;2023-04-24T09:55:42;7.30;;;3.80;;
9413;SDS011;4746;35.664;139.738;2023-04-24T09:58:13;6.53;;;3.93;;
9413;SDS011;4746;35.664;139.738;2023-04-24T10:00:41;8.57;;;4.23;;
9413;SDS011;4746;35.664;139.738;2023-04-24T10:03:08;7.70;;;4.33;;
9413;SDS011;4746;35.664;139.738;2023-04-24T10:05:36;6.03;;;4.17;;
9413;SDS011;4746;35.664;139.738;2023-04-24T10:10:40;8.03;;;4.20;;
9413;SDS011;4746;35.664;139.738;2023-04-24T10:13:12;6.47;;;4.40;;
9413;SDS011;4746;35.664;139.738;2023-04-24T10:15:41;8.10;;;4.17;;
9413;SDS011;4746;35.664;139.738;2023-04-24T10:18:10;9.37;;;5.10;;
9413;SDS011;4746;35.664;139.738;2023-04-24T10:20:38;7.80;;;5.20;;
9413;SDS011;4746;35.664;139.738;2023-04-24T10:23:06;6.97;;;4.77;;
9413;SDS011;4746;35.664;139.738;2023-04-24T10:25:36;7.27;;;4.53;;
9413;SDS011;4746;35.664;139.738;2023-04-24T10:28:04;7.40;;;4.53;;
9413;SDS011;4746;35.664;139.738;2023-04-24T10:30:33;9.00;;;4.73;;
9413;SDS011;4746;35.664;139.738;2023-04-24T10:33:01;7.50;;;4.37;;
9413;SDS011;4746;35.664;139.738;2023-04-24T10:35:31;6.60;;;4.57;;
9413;SDS011;4746;35.664;139.738;2023-04-24T10:38:17;8.07;;;4.80;;
9413;SDS011;4746;35.664;139.738;2023-04-24T10:40:51;8.30;;;4.40;;
9413;SDS011;4746;35.664;139.738;2023-04-24T10:43:33;9.17;;;4.33;;
9413;SDS011;4746;35.664;139.738;2023-04-24T10:46:02;6.37;;;4.67;;
9413;SDS011;4746;35.664;139.738;2023-04-24T10:48:32;9.93;;;4.60;;
9413;SDS011;4746;35.664;139.738;2023-04-24T10:51:00;9.83;;;4.70;;
9413;SDS011;4746;35.664;139.738;2023-04-24T10:53:29;7.37;;;4.00;;
9413;SDS011;4746;35.664;139.738;2023-04-24T11:01:24;8.70;;;4.60;;
9413;SDS011;4746;35.664;139.738;2023-04-24T11:04:01;5.70;;;4.30;;
9413;SDS011;4746;35.664;139.738;2023-04-24T11:06:30;6.37;;;4.83;;
9413;SDS011;4746;35.664;139.738;2023-04-24T11:09:02;6.73;;;4.10;;
9413;SDS011;4746;35.664;139.738;2023-04-24T11:11:32;5.50;;;4.20;;
9413;SDS011;4746;35.664;139.738;2023-04-24T11:14:02;6.40;;;4.33;;
9413;SDS011;4746;35.664;139.738;2023-04-24T11:24:48;7.30;;;4.73;;
9413;SDS011;4746;35.664;139.738;2023-04-24T11:27:19;6.53;;;4.30;;
9413;SDS011;4746;35.664;139.738;2023-04-24T11:29:58;8.80;;;4.27;;
9413;SDS011;4746;35.664;139.738;2023-04-24T11:35:00;6.73;;;4.50;;
9413;SDS011;4746;35.664;139.738;2023-04-24T11:37:39;8.67;;;4.63;;
9413;SDS011;4746;35.664;139.738;2023-04-24T11:40:12;9.03;;;4.57;;
9413;SDS011;4746;35.664;139.738;2023-04-24T11:42:43;6.50;;;4.37;;
9413;SDS011;4746;35.664;139.738;2023-04-24T11:45:17;7.17;;;4.80;;
9413;SDS011;4746;35.664;139.738;2023-04-24T11:47:50;10.40;;;5.00;;
9413;SDS011;4746;35.664;139.738;2023-04-24T11:50:19;7.90;;;4.90;;
9413;SDS011;4746;35.664;139.738;2023-04-24T11:52:53;8.10;;;5.03;;
9413;SDS011;4746;35.664;139.738;2023-04-24T11:57:59;11.23;;;5.17;;
9413;SDS011;4746;35.664;139.738;2023-04-24T12:00:27;7.13;;;4.77;;
9413;SDS011;4746;35.664;139.738;2023-04-24T12:03:09;7.57;;;4.23;;
9413;SDS011;4746;35.664;139.738;2023-04-24T12:05:38;6.70;;;4.13;;
9413;SDS011;4746;35.664;139.738;2023-04-24T12:08:06;6.53;;;4.47;;
9413;SDS011;4746;35.664;139.738;2023-04-24T12:10:34;4.77;;;4.13;;
9413;SDS011;4746;35.664;139.738;2023-04-24T12:13:02;7.87;;;4.60;;
9413;SDS011;4746;35.664;139.738;2023-04-24T12:15:29;7.07;;;4.73;;
9413;SDS011;4746;35.664;139.738;2023-04-24T12:17:57;5.53;;;3.93;;
9413;SDS011;4746;35.664;139.738;2023-04-24T12:20:28;7.23;;;4.13;;
9413;SDS011;4746;35.664;139.738;2023-04-24T12:22:59;6.43;;;3.90;;
9413;SDS011;4746;35.664;139.738;2023-04-24T12:25:33;7.83;;;4.00;;
9413;SDS011;4746;35.664;139.738;2023-04-24T12:30:35;7.97;;;4.40;;
9413;SDS011;4746;35.664;139.738;2023-04-24T12:33:10;6.77;;;4.20;;
9413;SDS011;4746;35.664;139.738;2023-04-24T12:35:39;7.50;;;4.10;;
9413;SDS011;4746;35.664;139.738;2023-04-24T12:38:11;5.07;;;3.93;;
9413;SDS011;4746;35.664;139.738;2023-04-24T12:40:40;4.57;;;3.87;;
9413;SDS011;4746;35.664;139.738;2023-04-24T12:43:19;7.23;;;4.47;;
9413;SDS011;4746;35.664;139.738;2023-04-24T12:45:47;6.03;;;4.37;;
9413;SDS011;4746;35.664;139.738;2023-04-24T12:48:15;5.67;;;4.03;;
9413;SDS011;4746;35.664;139.738;2023-04-24T12:50:43;5.90;;;4.13;;
9413;SDS011;4746;35.664;139.738;2023-04-24T12:53:10;6.63;;;4.10;;
9413;SDS011;4746;35.664;139.738;2023-04-24T12:55:38;7.17;;;4.57;;
9413;SDS011;4746;35.664;139.738;2023-04-24T12:58:05;5.83;;;4.50;;
9413;SDS011;4746;35.664;139.738;2023-04-24T13:00:33;7.50;;;4.33;;
9413;SDS011;4746;35.664;139.738;2023-04-24T13:03:01;6.30;;;3.83;;
9413;SDS011;4746;35.664;139.738;2023-04-24T13:05:29;5.80;;;4.20;;
9413;SDS011;4746;35.664;139.738;2023-04-24T13:07:57;8.67;;;3.70;;
9413;SDS011;4746;35.664;139.738;2023-04-24T13:10:24;5.63;;;4.23;;
9413;SDS011;4746;35.664;139.738;2023-04-24T13:12:52;5.00;;;3.80;;
9413;SDS011;4746;35.664;139.738;2023-04-24T13:15:20;6.30;;;4.40;;
9413;SDS011;4746;35.664;139.738;2023-04-24T13:17:47;4.97;;;3.70;;
9413;SDS011;4746;35.664;139.738;2023-04-24T13:20:15;6.57;;;4.17;;
9413;SDS011;4746;35.664;139.738;2023-04-24T13:22:44;5.40;;;4.23;;
9413;SDS011;4746;35.664;139.738;2023-04-24T13:25:11;7.13;;;4.57;;
9413;SDS011;4746;35.664;139.738;2023-04-24T13:27:42;5.03;;;3.77;;
9413;SDS011;4746;35.664;139.738;2023-04-24T13:30:09;9.03;;;4.83;;
9413;SDS011;4746;35.664;139.738;2023-04-24T13:32:38;5.73;;;4.07;;
9413;SDS011;4746;35.664;139.738;2023-04-24T13:35:05;6.97;;;3.83;;
9413;SDS011;4746;35.664;139.738;2023-04-24T13:37:33;6.70;;;3.90;;
9413;SDS011;4746;35.664;139.738;2023-04-24T13:40:01;5.63;;;4.17;;
9413;SDS011;4746;35.664;139.738;2023-04-24T13:42:31;5.90;;;4.50;;
9413;SDS011;4746;35.664;139.738;2023-04-24T13:44:59;6.37;;;4.03;;
9413;SDS011;4746;35.664;139.738;2023-04-24T13:47:26;5.97;;;4.33;;
9413;SDS011;4746;35.664;139.738;2023-04-24T13:49:54;5.83;;;3.93;;
9413;SDS011;4746;35.664;139.738;2023-04-24T13:52:21;6.07;;;4.40;;
9413;SDS011;4746;35.664;139.738;2023-04-24T13:54:49;6.67;;;4.00;;
9413;SDS011;4746;35.664;139.738;2023-04-24T13:57:16;7.10;;;4.30;;
9413;SDS011;4746;35.664;139.738;2023-04-24T13:59:44;10.07;;;4.37;;
9413;SDS011;4746;35.664;139.738;2023-04-24T14:02:12;7.47;;;4.27;;
9413;SDS011;4746;35.664;139.738;2023-04-24T14:04:40;4.83;;;3.87;;
9413;SDS011;4746;35.664;139.738;2023-04-24T14:07:07;6.60;;;4.20;;
9413;SDS011;4746;35.664;139.738;2023-04-24T14:09:35;8.30;;;4.40;;
9413;SDS011;4746;35.664;139.738;2023-04-24T14:12:02;6.50;;;4.10;;
9413;SDS011;4746;35.664;139.738;2023-04-24T14:14:31;6.60;;;4.30;;
9413;SDS011;4746;35.664;139.738;2023-04-24T14:16:58;7.43;;;4.37;;
9413;SDS011;4746;35.664;139.738;2023-04-24T14:19:26;9.97;;;4.70;;
9413;SDS011;4746;35.664;139.738;2023-04-24T14:21:53;6.13;;;4.60;;
9413;SDS011;4746;35.664;139.738;2023-04-24T14:24:23;6.97;;;4.53;;
9413;SDS011;4746;35.664;139.738;2023-04-24T14:26:50;5.13;;;4.23;;
9413;SDS011;4746;35.664;139.738;2023-04-24T14:29:18;7.00;;;4.50;;
9413;SDS011;4746;35.664;139.738;2023-04-24T14:31:45;7.10;;;4.13;;
9413;SDS011;4746;35.664;139.738;2023-04-24T14:34:13;5.47;;;4.40;;
9413;SDS011;4746;35.664;139.738;2023-04-24T14:36:41;8.03;;;4.10;;
9413;SDS011;4746;35.664;139.738;2023-04-24T14:39:10;8.37;;;4.80;;
9413;SDS011;4746;35.664;139.738;2023-04-24T14:41:37;5.80;;;4.30;;
9413;SDS011;4746;35.664;139.738;2023-04-24T14:44:05;5.57;;;4.03;;
9413;SDS011;4746;35.664;139.738;2023-04-24T14:46:33;6.20;;;4.40;;
9413;SDS011;4746;35.664;139.738;2023-04-24T14:49:00;8.53;;;4.50;;
9413;SDS011;4746;35.664;139.738;2023-04-24T14:51:28;7.57;;;4.50;;
9413;SDS011;4746;35.664;139.738;2023-04-24T14:53:56;6.13;;;4.37;;
9413;SDS011;4746;35.664;139.738;2023-04-24T14:56:24;5.87;;;3.93;;
9413;SDS011;4746;35.664;139.738;2023-04-24T14:58:51;7.33;;;4.57;;
9413;SDS011;4746;35.664;139.738;2023-04-24T15:01:19;4.57;;;3.73;;
9413;SDS011;4746;35.664;139.738;2023-04-24T15:03:47;6.37;;;5.00;;
9413;SDS011;4746;35.664;139.738;2023-04-24T15:06:15;9.30;;;3.93;;
9413;SDS011;4746;35.664;139.738;2023-04-24T15:08:42;8.33;;;4.00;;
9413;SDS011;4746;35.664;139.738;2023-04-24T15:11:12;5.10;;;4.37;;
9413;SDS011;4746;35.664;139.738;2023-04-24T15:13:40;6.27;;;4.10;;
9413;SDS011;4746;35.664;139.738;2023-04-24T15:16:07;7.30;;;4.60;;
9413;SDS011;4746;35.664;139.738;2023-04-24T15:18:35;6.60;;;4.53;;